createdAt,value
2023-01-02T00:02:05.862Z,3.85
2023-01-02T00:04:32.678Z,3.80
2023-01-02T00:06:59.973Z,4.20
2023-01-02T00:09:26.840Z,4.80
2023-01-02T00:11:53.620Z,3.95
2023-01-02T00:14:20.418Z,4.70
2023-01-02T00:16:47.204Z,4.50
2023-01-02T00:19:14.019Z,4.60
2023-01-02T00:21:41.914Z,5.50
2023-01-02T00:24:09.011Z,4.93
2023-01-02T00:26:35.884Z,5.97
2023-01-02T00:29:02.709Z,5.95
2023-01-02T00:31:29.584Z,6.65
2023-01-02T00:33:56.445Z,7.22
2023-01-02T00:36:23.464Z,7.20
2023-01-02T00:38:50.284Z,5.97
2023-01-02T00:41:17.185Z,6.53
2023-01-02T00:43:43.962Z,7.03
2023-01-02T00:46:12.127Z,6.90
2023-01-02T00:48:39.604Z,5.43
2023-01-02T00:51:06.513Z,5.60
2023-01-02T00:53:33.304Z,6.20
2023-01-02T00:56:00.141Z,4.85
2023-01-02T00:58:26.938Z,5.20
2023-01-02T01:00:53.805Z,5.30
2023-01-02T01:03:20.656Z,5.78
2023-01-02T01:05:47.474Z,5.60
2023-01-02T01:08:14.432Z,6.32
2023-01-02T01:10:41.257Z,6.80
2023-01-02T01:13:08.114Z,6.40
2023-01-02T01:15:36.051Z,6.10
2023-01-02T01:18:03.152Z,5.80
2023-01-02T01:20:29.999Z,5.53
2023-01-02T01:22:56.843Z,5.43
2023-01-02T01:25:23.657Z,5.10
2023-01-02T01:27:54.188Z,5.93
2023-01-02T01:30:21.216Z,5.85
2023-01-02T01:32:48.008Z,5.20
2023-01-02T01:35:14.914Z,5.35
2023-01-02T01:37:41.751Z,5.30
2023-01-02T01:40:08.906Z,5.25
2023-01-02T01:42:36.397Z,5.40
2023-01-02T01:45:03.973Z,5.53
2023-01-02T01:47:40.262Z,5.10
2023-01-02T01:50:18.346Z,4.40
2023-01-02T01:52:51.973Z,5.07
2023-01-02T01:55:24.075Z,5.10
2023-01-02T01:57:58.921Z,3.67
2023-01-02T02:00:25.871Z,4.53
2023-01-02T02:02:58.058Z,5.40
2023-01-02T02:05:28.192Z,4.80
2023-01-02T02:08:33.323Z,4.85
2023-01-02T02:11:00.999Z,4.57
2023-01-02T02:13:30.850Z,5.18
2023-01-02T02:16:11.304Z,5.00
2023-01-02T02:18:59.681Z,4.82
2023-01-02T02:21:54.436Z,3.92
2023-01-02T02:24:59.925Z,4.97
2023-01-02T02:28:05.151Z,4.43
2023-01-02T02:30:55.727Z,4.85
2023-01-02T02:33:28.323Z,4.63
2023-01-02T02:36:39.537Z,4.55
2023-01-02T02:39:36.489Z,4.80
2023-01-02T02:42:18.893Z,4.40
2023-01-02T02:44:54.930Z,4.60
2023-01-02T02:47:33.731Z,4.47
2023-01-02T02:50:03.543Z,4.72
2023-01-02T02:52:44.152Z,4.25
2023-01-02T02:55:24.418Z,4.22
2023-01-02T02:57:53.059Z,5.38
2023-01-02T03:00:22.855Z,4.07
2023-01-02T03:02:50.171Z,4.55
2023-01-02T03:05:39.437Z,5.03
2023-01-02T03:08:24.754Z,4.70
2023-01-02T03:11:00.151Z,4.70
2023-01-02T03:14:01.387Z,4.68
2023-01-02T03:16:33.604Z,5.03
2023-01-02T03:19:09.285Z,4.75
2023-01-02T03:21:51.682Z,4.75
2023-01-02T03:24:21.204Z,4.55
2023-01-02T03:26:53.537Z,4.50
2023-01-02T03:29:37.449Z,4.10
2023-01-02T03:32:09.520Z,4.35
2023-01-02T03:34:38.821Z,4.20
2023-01-02T03:37:12.154Z,4.07
2023-01-02T03:39:46.096Z,3.63
2023-01-02T03:42:17.272Z,3.30
2023-01-02T03:44:54.548Z,3.75
2023-01-02T03:47:32.511Z,4.10
2023-01-02T03:50:04.985Z,3.80
2023-01-02T03:52:32.098Z,4.10
2023-01-02T03:55:00.753Z,3.63
2023-01-02T03:57:57.473Z,3.90
2023-01-02T04:00:34.570Z,3.72
2023-01-02T04:03:12.399Z,3.97
2023-01-02T04:05:45.821Z,3.70
2023-01-02T04:08:25.128Z,4.10
2023-01-02T04:10:58.478Z,3.67
2023-01-02T04:13:34.367Z,3.30
2023-01-02T04:16:04.223Z,3.90
2023-01-02T04:18:36.702Z,4.07
2023-01-02T04:21:11.867Z,3.10
2023-01-02T04:23:50.009Z,3.85
2023-01-02T04:26:21.232Z,3.90
2023-01-02T04:28:49.004Z,3.40
2023-01-02T04:31:20.995Z,3.55
2023-01-02T04:34:00.476Z,3.33
2023-01-02T04:36:27.892Z,3.67
2023-01-02T04:38:54.809Z,2.90
2023-01-02T04:41:29.018Z,3.08
2023-01-02T04:43:59.255Z,3.50
2023-01-02T04:46:27.346Z,3.60
2023-01-02T04:48:55.017Z,3.58
2023-01-02T04:51:22.316Z,3.40
2023-01-02T04:53:50.312Z,3.38
2023-01-02T04:56:17.960Z,3.70
2023-01-02T04:58:46.708Z,3.80
2023-01-02T05:01:16.819Z,3.35
2023-01-02T05:03:46.175Z,3.22
2023-01-02T05:06:13.428Z,3.65
2023-01-02T05:08:40.358Z,3.60
2023-01-02T05:11:08.651Z,3.03
2023-01-02T05:13:35.833Z,3.55
2023-01-02T05:16:03.902Z,3.80
2023-01-02T05:18:32.190Z,3.30
2023-01-02T05:21:30.184Z,3.60
2023-01-02T05:23:59.476Z,3.58
2023-01-02T05:26:26.336Z,3.63
2023-01-02T05:28:54.324Z,3.30
2023-01-02T05:31:21.261Z,3.28
2023-01-02T05:33:52.697Z,2.95
2023-01-02T05:36:19.866Z,3.15
2023-01-02T05:38:46.809Z,3.22
2023-01-02T05:41:13.726Z,3.47
2023-01-02T05:43:40.573Z,3.60
2023-01-02T05:46:18.384Z,3.28
2023-01-02T05:48:46.093Z,3.63
2023-01-02T05:51:15.636Z,3.10
2023-01-02T05:53:43.379Z,3.53
2023-01-02T05:56:15.628Z,2.85
2023-01-02T05:58:44.767Z,3.60
2023-01-02T06:01:19.967Z,3.70
2023-01-02T06:03:48.467Z,3.92
2023-01-02T06:06:17.135Z,4.70
2023-01-02T06:08:44.445Z,5.40
2023-01-02T06:11:11.315Z,4.93
2023-01-02T06:13:39.226Z,5.07
2023-01-02T06:16:08.960Z,5.25
2023-01-02T06:18:37.051Z,5.85
2023-01-02T06:21:09.943Z,6.25
2023-01-02T06:23:37.624Z,4.80
2023-01-02T06:26:08.723Z,5.55
2023-01-02T06:28:35.564Z,4.97
2023-01-02T06:31:04.711Z,5.65
2023-01-02T06:33:31.822Z,4.80
2023-01-02T06:36:03.863Z,5.47
2023-01-02T06:38:31.348Z,5.28
2023-01-02T06:41:00.715Z,5.80
2023-01-02T06:43:29.002Z,5.55
2023-01-02T06:46:07.031Z,5.25
2023-01-02T06:48:35.025Z,4.88
2023-01-02T06:51:09.791Z,4.93
2023-01-02T06:53:38.467Z,4.75
2023-01-02T06:56:06.131Z,6.10
2023-01-02T06:58:35.020Z,5.38
2023-01-02T07:01:07.767Z,5.45
2023-01-02T07:03:34.655Z,5.65
2023-01-02T07:06:03.756Z,5.15
2023-01-02T07:08:31.422Z,5.78
2023-01-02T07:11:14.251Z,5.60
2023-01-02T07:13:42.467Z,4.50
2023-01-02T07:16:11.835Z,4.50
2023-01-02T07:18:38.964Z,5.32
2023-01-02T07:21:07.253Z,4.45
2023-01-02T07:23:34.346Z,4.68
2023-01-02T07:26:02.717Z,5.72
2023-01-02T07:28:30.512Z,4.90
2023-01-02T07:31:02.707Z,4.80
2023-01-02T07:33:30.407Z,5.05
2023-01-02T07:35:59.169Z,5.80
2023-01-02T07:38:26.286Z,6.30
2023-01-02T07:40:53.415Z,6.05
2023-01-02T07:43:20.875Z,5.90
2023-01-02T07:45:50.371Z,5.80
2023-01-02T07:48:18.520Z,5.47
2023-01-02T07:50:45.875Z,5.97
2023-01-02T07:53:13.138Z,5.97
2023-01-02T07:55:40.127Z,5.90
2023-01-02T07:58:07.175Z,5.50
2023-01-02T08:00:34.033Z,5.57
2023-01-02T08:03:01.313Z,4.87
2023-01-02T08:05:28.235Z,5.23
2023-01-02T08:07:55.108Z,5.27
2023-01-02T08:10:22.015Z,5.40
2023-01-02T08:12:48.837Z,4.80
2023-01-02T08:15:15.686Z,5.00
2023-01-02T08:17:42.545Z,5.30
2023-01-02T08:20:10.502Z,5.40
2023-01-02T08:22:37.677Z,5.80
2023-01-02T08:25:04.923Z,5.97
2023-01-02T08:27:32.157Z,5.80
2023-01-02T08:29:59.125Z,6.70
2023-01-02T08:32:26.342Z,6.13
2023-01-02T08:34:53.251Z,5.40
2023-01-02T08:37:20.081Z,5.53
2023-01-02T08:39:46.920Z,4.93
2023-01-02T08:42:13.704Z,5.93
2023-01-02T08:44:40.628Z,5.63
2023-01-02T08:47:07.477Z,5.73
2023-01-02T08:49:34.345Z,5.80
2023-01-02T08:52:01.255Z,6.03
2023-01-02T08:54:28.043Z,6.10
2023-01-02T08:56:54.888Z,5.60
2023-01-02T08:59:23.893Z,6.97
2023-01-02T09:01:50.998Z,5.90
2023-01-02T09:04:18.273Z,6.30
2023-01-02T09:06:45.786Z,6.23
2023-01-02T09:09:15.258Z,6.07
2023-01-02T09:11:51.091Z,5.83
2023-01-02T09:14:20.452Z,6.57
2023-01-02T09:16:47.963Z,6.40
2023-01-02T09:19:14.861Z,6.37
2023-01-02T09:21:41.765Z,6.30
2023-01-02T09:24:09.556Z,5.73
2023-01-02T09:26:38.151Z,5.53
2023-01-02T09:29:05.370Z,6.20
2023-01-02T09:31:32.275Z,5.30
2023-01-02T09:33:59.300Z,5.80
2023-01-02T09:36:26.177Z,6.10
2023-01-02T09:39:01.426Z,5.80
2023-01-02T09:41:41.046Z,5.77
2023-01-02T09:44:21.216Z,5.30
2023-01-02T09:47:02.187Z,4.93
2023-01-02T09:49:32.856Z,4.90
2023-01-02T09:51:59.901Z,4.43
2023-01-02T09:54:33.302Z,4.47
2023-01-02T09:57:15.286Z,4.27
2023-01-02T09:59:59.696Z,4.10
2023-01-02T10:02:47.688Z,3.83
2023-01-02T10:05:17.332Z,4.70
2023-01-02T10:08:08.841Z,3.63
2023-01-02T10:10:46.338Z,4.70
2023-01-02T10:13:44.188Z,4.00
2023-01-02T10:16:19.867Z,2.97
2023-01-02T10:18:51.337Z,3.93
2023-01-02T10:21:46.613Z,3.17
2023-01-02T10:24:15.540Z,3.10
2023-01-02T10:26:47.267Z,3.27
2023-01-02T10:29:29.180Z,3.50
2023-01-02T10:32:05.652Z,3.33
2023-01-02T10:34:56.105Z,3.93
2023-01-02T10:37:22.913Z,2.67
2023-01-02T10:39:50.672Z,3.17
2023-01-02T10:42:17.617Z,2.80
2023-01-02T10:44:46.030Z,2.70
2023-01-02T10:47:35.492Z,2.57
2023-01-02T10:50:05.766Z,2.47
2023-01-02T10:52:43.395Z,2.50
2023-01-02T10:55:10.238Z,3.20
2023-01-02T10:57:46.109Z,2.83
2023-01-02T11:00:24.107Z,2.90
2023-01-02T11:03:05.754Z,2.50
2023-01-02T11:05:32.672Z,2.67
2023-01-02T11:07:59.612Z,2.70
2023-01-02T11:10:31.267Z,2.60
2023-01-02T11:13:09.491Z,2.73
2023-01-02T11:15:47.545Z,2.73
2023-01-02T11:18:24.547Z,3.00
2023-01-02T11:20:54.686Z,3.40
2023-01-02T11:23:26.319Z,3.07
2023-01-02T11:25:54.688Z,2.87
2023-01-02T11:28:28.249Z,3.57
2023-01-02T11:31:09.978Z,2.97
2023-01-02T11:33:38.375Z,2.83
2023-01-02T11:36:05.137Z,3.10
2023-01-02T11:38:51.982Z,3.13
2023-01-02T11:42:02.179Z,3.03
2023-01-02T11:44:32.320Z,3.13
2023-01-02T11:47:00.982Z,3.03
2023-01-02T11:49:35.393Z,3.10
2023-01-02T11:52:04.611Z,3.10
2023-01-02T11:54:39.691Z,2.90
2023-01-02T11:57:18.910Z,2.53
2023-01-02T11:59:48.565Z,2.50
2023-01-02T12:02:23.371Z,2.87
2023-01-02T12:04:50.225Z,2.70
2023-01-02T12:07:44.733Z,2.77
2023-01-02T12:10:42.653Z,3.07
2023-01-02T12:13:17.451Z,2.43
2023-01-02T12:15:55.725Z,2.23
2023-01-02T12:18:41.648Z,2.50
2023-01-02T12:21:24.674Z,2.00
2023-01-02T12:24:19.732Z,2.20
2023-01-02T12:27:15.721Z,2.50
2023-01-02T12:29:46.082Z,2.03
2023-01-02T12:32:44.326Z,1.60
2023-01-02T12:35:23.360Z,1.57
2023-01-02T12:37:55.163Z,2.00
2023-01-02T12:40:44.212Z,2.40
2023-01-02T12:43:28.943Z,1.97
2023-01-02T12:46:09.012Z,1.90
2023-01-02T12:49:18.296Z,1.97
2023-01-02T12:51:55.882Z,1.87
2023-01-02T12:54:40.657Z,1.83
2023-01-02T12:57:22.599Z,1.97
2023-01-02T12:59:52.381Z,1.70
2023-01-02T13:02:22.371Z,1.97
2023-01-02T13:04:55.205Z,1.57
2023-01-02T13:07:21.970Z,1.40
2023-01-02T13:09:50.887Z,2.03
2023-01-02T13:12:22.197Z,1.90
2023-01-02T13:15:01.842Z,1.73
2023-01-02T13:17:52.698Z,1.90
2023-01-02T13:20:50.666Z,1.87
2023-01-02T13:23:29.725Z,1.87
2023-01-02T13:26:05.924Z,2.03
2023-01-02T13:28:33.958Z,1.60
2023-01-02T13:31:44.255Z,1.83
2023-01-02T13:33:54.529Z,1.80
2023-01-02T13:36:36.846Z,1.87
2023-01-02T13:39:26.243Z,1.60
2023-01-02T13:42:17.921Z,2.13
2023-01-02T13:44:48.545Z,2.07
2023-01-02T13:47:31.790Z,2.20
2023-01-02T13:50:16.425Z,2.30
2023-01-02T13:53:03.775Z,1.60
2023-01-02T13:55:59.679Z,2.13
2023-01-02T13:58:40.819Z,2.17
2023-01-02T14:01:40.469Z,1.67
2023-01-02T14:04:12.767Z,2.40
2023-01-02T14:06:41.905Z,2.07
2023-01-02T14:09:12.583Z,1.80
2023-01-02T14:11:55.710Z,1.53
2023-01-02T14:14:41.409Z,1.80
2023-01-02T14:17:39.969Z,1.90
2023-01-02T14:20:18.637Z,1.90
2023-01-02T14:22:59.376Z,1.90
2023-01-02T14:25:26.888Z,1.50
2023-01-02T14:28:00.057Z,2.00
2023-01-02T14:30:37.500Z,2.30
2023-01-02T14:33:07.718Z,1.87
2023-01-02T14:35:57.780Z,1.70
2023-01-02T14:38:27.492Z,2.37
2023-01-02T14:41:14.623Z,1.97
2023-01-02T14:43:42.421Z,2.00
2023-01-02T14:46:28.098Z,1.97
2023-01-02T14:48:58.490Z,2.10
2023-01-02T14:51:38.247Z,2.10
2023-01-02T14:54:26.278Z,1.80
2023-01-02T14:57:18.911Z,2.30
2023-01-02T14:59:48.934Z,2.80
2023-01-02T15:02:19.646Z,2.60
2023-01-02T15:04:52.676Z,2.53
2023-01-02T15:07:32.546Z,2.70
2023-01-02T15:10:04.276Z,2.60
2023-01-02T15:12:53.638Z,2.37
2023-01-02T15:15:25.588Z,2.40
2023-01-02T15:17:54.051Z,2.50
2023-01-02T15:20:24.470Z,2.67
2023-01-02T15:22:56.497Z,2.37
2023-01-02T15:25:40.252Z,2.90
2023-01-02T15:28:22.784Z,3.00
2023-01-02T15:30:59.756Z,2.73
2023-01-02T15:33:30.190Z,2.47
2023-01-02T15:36:01.640Z,2.10
2023-01-02T15:38:28.650Z,2.77
2023-01-02T15:40:56.519Z,2.63
2023-01-02T15:43:44.131Z,3.13
2023-01-02T15:46:12.388Z,2.40
2023-01-02T15:48:40.623Z,2.70
2023-01-02T15:51:13.721Z,2.40
2023-01-02T15:53:42.922Z,2.87
2023-01-02T15:56:14.385Z,2.40
2023-01-02T15:58:49.434Z,2.73
2023-01-02T16:01:21.323Z,2.60
2023-01-02T16:04:03.934Z,2.47
2023-01-02T16:06:39.413Z,2.37
2023-01-02T16:09:08.609Z,2.53
2023-01-02T16:11:46.881Z,2.87
2023-01-02T16:14:20.317Z,2.97
2023-01-02T16:16:55.631Z,2.40
2023-01-02T16:19:31.383Z,3.00
2023-01-02T16:22:19.413Z,2.47
2023-01-02T16:24:53.821Z,2.10
2023-01-02T16:27:27.204Z,2.27
2023-01-02T16:29:54.971Z,2.07
2023-01-02T16:32:25.481Z,2.33
2023-01-02T16:35:15.912Z,2.27
2023-01-02T16:38:18.812Z,2.20
2023-01-02T16:41:01.378Z,2.40
2023-01-02T16:43:30.763Z,2.20
2023-01-02T16:45:59.168Z,2.17
2023-01-02T16:48:28.596Z,2.33
2023-01-02T16:50:57.029Z,2.20
2023-01-02T16:53:33.799Z,2.23
2023-01-02T16:56:00.687Z,2.30
2023-01-02T16:58:27.690Z,2.03
2023-01-02T17:00:55.561Z,2.90
2023-01-02T17:03:25.267Z,3.00
2023-01-02T17:06:02.174Z,2.70
2023-01-02T17:08:31.710Z,2.77
2023-01-02T17:10:59.363Z,3.03
2023-01-02T17:13:27.116Z,3.20
2023-01-02T17:15:54.057Z,3.07
2023-01-02T17:18:21.082Z,2.60
2023-01-02T17:20:48.390Z,2.87
2023-01-02T17:23:15.248Z,2.80
2023-01-02T17:25:43.734Z,3.00
2023-01-02T17:28:10.781Z,2.93
2023-01-02T17:30:37.782Z,2.50
2023-01-02T17:33:04.730Z,2.50
2023-01-02T17:35:34.837Z,2.47
2023-01-02T17:38:01.646Z,2.90
2023-01-02T17:40:28.534Z,2.80
2023-01-02T17:42:55.423Z,3.10
2023-01-02T17:45:22.317Z,2.75
2023-01-02T17:48:01.363Z,2.73
2023-01-02T17:50:31.837Z,3.00
2023-01-02T17:52:59.851Z,3.00
2023-01-02T17:55:26.675Z,3.10
2023-01-02T17:57:53.468Z,3.10
2023-01-02T18:00:23.342Z,2.70
2023-01-02T18:02:51.701Z,3.43
2023-01-02T18:05:18.658Z,3.20
2023-01-02T18:07:45.454Z,3.33
2023-01-02T18:10:17.362Z,2.38
2023-01-02T18:12:46.871Z,3.55
2023-01-02T18:15:22.018Z,3.50
2023-01-02T18:17:49.794Z,3.57
2023-01-02T18:20:19.962Z,3.20
2023-01-02T18:22:49.955Z,3.03
2023-01-02T18:25:21.628Z,2.95
2023-01-02T18:27:48.756Z,3.50
2023-01-02T18:30:22.331Z,3.05
2023-01-02T18:32:50.537Z,3.42
2023-01-02T18:35:55.672Z,2.97
2023-01-02T18:38:33.591Z,3.20
2023-01-02T18:41:00.613Z,3.15
2023-01-02T18:43:37.760Z,3.10
2023-01-02T18:46:15.494Z,2.67
2023-01-02T18:48:42.869Z,3.37
2023-01-02T18:51:23.439Z,2.93
2023-01-02T18:53:56.053Z,3.20
2023-01-02T18:56:29.257Z,3.53
2023-01-02T18:59:05.314Z,3.50
2023-01-02T19:01:39.290Z,2.70
2023-01-02T19:04:18.943Z,3.03
2023-01-02T19:06:51.975Z,3.00
2023-01-02T19:09:38.988Z,2.78
2023-01-02T19:12:33.233Z,4.43
2023-01-02T19:15:01.527Z,3.45
2023-01-02T19:17:31.756Z,3.05
2023-01-02T19:20:00.270Z,2.90
2023-01-02T19:22:33.378Z,2.60
2023-01-02T19:25:08.870Z,2.80
2023-01-02T19:27:39.293Z,3.10
2023-01-02T19:30:23.239Z,3.88
2023-01-02T19:32:49.999Z,2.77
2023-01-02T19:35:25.559Z,3.03
2023-01-02T19:37:52.379Z,3.40
2023-01-02T19:40:23.716Z,2.80
2023-01-02T19:42:51.853Z,2.70
2023-01-02T19:45:26.789Z,3.30
2023-01-02T19:47:54.143Z,3.47
2023-01-02T19:50:25.777Z,3.90
2023-01-02T19:52:52.924Z,3.70
2023-01-02T19:55:19.751Z,3.60
2023-01-02T19:57:47.441Z,3.22
2023-01-02T20:00:16.478Z,2.60
2023-01-02T20:02:49.611Z,2.88
2023-01-02T20:05:21.452Z,2.53
2023-01-02T20:07:50.297Z,3.03
2023-01-02T20:10:17.294Z,2.53
2023-01-02T20:12:44.892Z,2.55
2023-01-02T20:15:17.480Z,3.33
2023-01-02T20:17:44.970Z,2.90
2023-01-02T20:20:17.889Z,3.10
2023-01-02T20:22:45.313Z,2.75
2023-01-02T20:25:14.205Z,3.07
2023-01-02T20:27:41.349Z,3.03
2023-01-02T20:30:09.583Z,3.73
2023-01-02T20:32:36.418Z,3.53
2023-01-02T20:35:04.499Z,2.93
2023-01-02T20:37:31.298Z,3.88
2023-01-02T20:39:58.360Z,3.92
2023-01-02T20:42:25.382Z,3.00
2023-01-02T20:44:52.363Z,3.57
2023-01-02T20:47:19.621Z,3.10
2023-01-02T20:49:46.384Z,3.23
2023-01-02T20:52:13.267Z,2.97
2023-01-02T20:54:40.140Z,3.10
2023-01-02T20:57:06.973Z,3.22
2023-01-02T20:59:33.840Z,3.33
2023-01-02T21:02:00.914Z,3.47
2023-01-02T21:04:34.545Z,2.97
2023-01-02T21:07:04.036Z,3.10
2023-01-02T21:09:30.865Z,3.03
2023-01-02T21:11:57.681Z,3.30
2023-01-02T21:14:24.480Z,3.95
2023-01-02T21:16:51.446Z,3.20
2023-01-02T21:19:18.240Z,4.60
2023-01-02T21:21:45.021Z,3.28
2023-01-02T21:24:11.873Z,3.08
2023-01-02T21:26:38.631Z,3.15
2023-01-02T21:29:05.618Z,2.88
2023-01-02T21:31:32.571Z,2.70
2023-01-02T21:33:59.482Z,3.00
2023-01-02T21:36:26.258Z,3.20
2023-01-02T21:38:53.096Z,2.80
2023-01-02T21:41:40.122Z,3.40
2023-01-02T21:44:06.911Z,2.90
2023-01-02T21:46:33.725Z,3.60
2023-01-02T21:49:00.808Z,2.95
2023-01-02T21:51:32.659Z,3.20
2023-01-02T21:54:00.235Z,3.45
2023-01-02T21:56:27.334Z,2.88
2023-01-02T21:58:55.097Z,3.10
2023-01-02T22:01:22.138Z,2.58
2023-01-02T22:03:49.172Z,3.40
2023-01-02T22:06:16.461Z,3.15
2023-01-02T22:08:43.297Z,2.90
2023-01-02T22:11:28.586Z,2.60
2023-01-02T22:13:55.369Z,2.50
2023-01-02T22:16:22.138Z,2.80
2023-01-02T22:18:50.678Z,2.83
2023-01-02T22:21:17.456Z,2.50
2023-01-02T22:23:44.251Z,2.60
2023-01-02T22:26:11.159Z,3.03
2023-01-02T22:28:38.021Z,2.90
2023-01-02T22:31:04.891Z,2.70
2023-01-02T22:33:31.754Z,2.83
2023-01-02T22:35:58.559Z,2.83
2023-01-02T22:38:25.384Z,2.92
2023-01-02T22:40:52.320Z,3.08
2023-01-02T22:43:24.474Z,3.05
2023-01-02T22:45:53.381Z,2.95
2023-01-02T22:48:31.324Z,3.00
2023-01-02T22:51:00.484Z,2.97
2023-01-02T22:53:36.941Z,3.30
2023-01-02T22:56:14.222Z,3.20
2023-01-02T22:58:41.251Z,2.92
2023-01-02T23:01:21.828Z,2.63
2023-01-02T23:03:49.005Z,2.95
2023-01-02T23:06:21.951Z,3.10
2023-01-02T23:08:49.691Z,2.55
2023-01-02T23:11:16.759Z,2.35
2023-01-02T23:13:44.331Z,2.30
2023-01-02T23:16:29.770Z,3.05
2023-01-02T23:19:14.656Z,2.65
2023-01-02T23:21:44.120Z,2.30
2023-01-02T23:24:13.318Z,2.33
2023-01-02T23:26:43.192Z,2.95
2023-01-02T23:29:11.002Z,2.42
2023-01-02T23:31:40.095Z,2.30
2023-01-02T23:34:08.040Z,2.50
2023-01-02T23:36:34.975Z,2.33
2023-01-02T23:39:02.140Z,2.38
2023-01-02T23:41:28.901Z,2.33
2023-01-02T23:43:55.695Z,2.25
2023-01-02T23:46:22.611Z,2.20
2023-01-02T23:48:49.432Z,2.30
2023-01-02T23:51:16.863Z,2.05
2023-01-02T23:53:43.777Z,2.38
2023-01-02T23:56:37.822Z,2.40
2023-01-02T23:59:10.662Z,2.50
